SBVT/VIX METAR and TAF weather

Enter ICAO airport designator
Station Type Date Time Source
SBVT METAR 2019/10/23 20:00 UTC NOAA

SBVT 232000Z 19009KT 9999 BKN020 OVC045 24/21 Q1015


Station Type Date Time Source
SBVT Decoded METAR 2019/10/23 20:00 UTC NOAA

Vitoria Aeroporto , Brazil (SBVT) 20-16S 040-17W 4M
Oct 23, 2019 - 04:00 PM EDT / 2019.10.23 2000 UTC
Wind: from the S (190 degrees) at 10 MPH (9 KT):0
Visibility: greater than 7 mile(s):0
Sky conditions: overcast
Temperature: 75 F (24 C)
Dew Point: 69 F (21 C)
Relative Humidity: 83%
Pressure (altimeter): 29.97 in. Hg (1015 hPa)
ob: SBVT 232000Z 19009KT 9999 BKN020 OVC045 24/21 Q1015
cycle: 20

Station Type Date Time Source
SBVT TAF 2019/10/23 18:36 UTC NOAA

TAF SBVT 231600Z 2318/2418 20008KT 9999 BKN020 TN21/2406Z TX26/2414Z
BECMG 2322/2324 23008KT SCT010
BECMG 2411/2413 18008KT SCT025
BECMG 2415/2417 14008KT
RMK PEH

Example: see airport list